Time;durP1;ratioP1;P1;durP2;ratioP2;P2;SDS_P1;SDS_P2;PMS_P1;PMS_P2;Temp;Humidity;BMP_temperature;BMP_pressure;BME280_temperature;BME280_humidity;BME280_pressure;Samples;Min_cycle;Max_cycle;Signal;HPM_P1;HPM_P2
2023/03/18 00:01:48;;;;;;;2.73;2.30;;;16.60;58.50;17.90;100084.00;;;;5011062;28;20176;-44
2023/03/18 00:04:14;;;;;;;3.13;2.20;;;16.60;58.50;17.90;100091.00;;;;5012295;28;20264;-44
2023/03/18 00:06:39;;;;;;;2.83;2.20;;;16.60;58.60;17.90;100093.00;;;;5011474;28;20260;-44
2023/03/18 00:09:06;;;;;;;3.40;2.30;;;16.60;58.60;17.90;100105.00;;;;5012101;28;20312;-44
2023/03/18 00:11:31;;;;;;;3.43;2.20;;;16.60;58.70;17.90;100107.00;;;;5011591;28;20207;-44
2023/03/18 00:13:58;;;;;;;3.20;2.20;;;16.60;58.70;17.90;100094.00;;;;5011354;28;20259;-44
2023/03/18 00:16:24;;;;;;;3.07;2.10;;;16.60;58.70;17.90;100088.00;;;;5010644;28;20205;-44
2023/03/18 00:18:49;;;;;;;2.97;2.20;;;16.60;58.70;17.90;100094.00;;;;5010712;28;20191;-44
2023/03/18 00:21:15;;;;;;;3.23;2.20;;;16.50;58.60;17.90;100101.00;;;;5010419;28;20204;-44
2023/03/18 00:23:41;;;;;;;2.70;2.10;;;16.50;58.60;17.90;100096.00;;;;4974452;28;1049609;-44
2023/03/18 00:26:07;;;;;;;3.27;2.17;;;16.50;58.70;17.90;100106.00;;;;5011468;28;20271;-45
2023/03/18 00:28:33;;;;;;;2.77;2.20;;;16.50;58.70;17.90;100105.00;;;;5011409;28;20206;-44
2023/03/18 00:31:07;;;;;;;4.10;2.40;;;16.50;58.80;17.90;100107.00;;;;5010918;28;20182;-44
2023/03/18 00:33:38;;;;;;;4.67;2.40;;;16.50;58.80;17.80;100114.00;;;;5010295;28;20218;-45
2023/03/18 00:36:05;;;;;;;2.43;2.13;;;16.50;58.80;17.80;100108.00;;;;5010112;28;20296;-45
2023/03/18 00:38:32;;;;;;;2.53;2.23;;;16.50;58.80;17.80;100101.00;;;;5010251;28;20202;-44
2023/03/18 00:41:09;;;;;;;2.67;2.40;;;16.50;58.80;17.80;100095.00;;;;5010215;28;20227;-44
2023/03/18 00:43:44;;;;;;;3.67;2.20;;;16.50;58.80;17.80;100085.00;;;;5010273;28;20522;-45
2023/03/18 00:46:15;;;;;;;4.43;2.33;;;16.50;58.80;17.80;100075.00;;;;5010851;28;20530;-43
2023/03/18 00:48:41;;;;;;;2.67;2.30;;;16.50;58.80;17.80;100077.00;;;;5010823;28;20239;-44
2023/03/18 00:51:07;;;;;;;2.70;2.10;;;16.50;58.80;17.80;100066.00;;;;5010283;28;20303;-44
2023/03/18 00:53:33;;;;;;;3.90;2.17;;;16.50;58.80;17.80;100080.00;;;;5009476;28;20176;-44
2023/03/18 00:55:59;;;;;;;2.40;2.13;;;16.50;58.80;17.70;100090.00;;;;5009874;28;20287;-44
2023/03/18 00:58:24;;;;;;;2.93;2.10;;;16.50;58.80;17.80;100095.00;;;;5011339;28;20193;-44
2023/03/18 01:00:50;;;;;;;2.97;2.10;;;16.40;58.70;17.70;100087.00;;;;5011083;28;20219;-44
2023/03/18 01:03:16;;;;;;;2.77;2.17;;;16.50;58.80;17.70;100097.00;;;;5010277;28;20847;-43
2023/03/18 01:05:42;;;;;;;2.93;2.30;;;16.50;58.80;17.70;100092.00;;;;5009782;28;20258;-44
2023/03/18 01:08:08;;;;;;;2.57;1.97;;;16.50;58.80;17.70;100098.00;;;;5009433;28;20202;-44
2023/03/18 01:10:34;;;;;;;2.40;2.17;;;16.40;58.70;17.70;100097.00;;;;5009729;28;20190;-44
2023/03/18 01:13:00;;;;;;;2.90;2.10;;;16.40;58.70;17.70;100095.00;;;;5009529;28;20199;-44
2023/03/18 01:15:25;;;;;;;3.23;2.17;;;16.40;58.80;17.70;100086.00;;;;5009650;28;20211;-44
2023/03/18 01:17:55;;;;;;;3.03;2.27;;;16.40;58.90;17.70;100082.00;;;;5009494;28;20643;-44
2023/03/18 01:20:22;;;;;;;2.73;2.27;;;16.40;59.00;17.70;100084.00;;;;5009639;28;20638;-44
2023/03/18 01:22:49;;;;;;;3.00;2.17;;;16.40;58.90;17.70;100103.00;;;;5009605;28;20182;-44
2023/03/18 01:25:15;;;;;;;2.60;2.37;;;16.40;58.90;17.70;100099.00;;;;5009352;28;20203;-44
2023/03/18 01:27:41;;;;;;;4.20;2.23;;;16.40;59.00;17.70;100094.00;;;;5009741;28;20176;-43
2023/03/18 01:30:10;;;;;;;2.67;2.17;;;16.40;59.10;17.70;100091.00;;;;5009311;28;20204;-43
2023/03/18 01:32:36;;;;;;;2.40;2.10;;;16.40;59.00;17.60;100076.00;;;;5009533;28;20252;-44
2023/03/18 01:35:03;;;;;;;3.17;2.10;;;16.40;59.10;17.60;100091.00;;;;5009328;28;20203;-45
2023/03/18 01:37:30;;;;;;;2.57;2.30;;;16.40;59.10;17.60;100109.00;;;;5009218;28;20185;-44
2023/03/18 01:39:57;;;;;;;3.20;2.50;;;16.40;59.20;17.60;100094.00;;;;5009197;28;20283;-43
2023/03/18 01:42:23;;;;;;;2.50;2.17;;;16.40;59.30;17.60;100093.00;;;;5007867;28;20177;-43
2023/03/18 01:44:49;;;;;;;2.30;2.10;;;16.40;60.00;17.60;100087.00;;;;5009361;28;20261;-43
2023/03/18 01:47:20;;;;;;;3.27;2.20;;;16.30;59.20;17.60;100093.00;;;;5009286;28;20197;-44
2023/03/18 01:49:48;;;;;;;3.70;2.20;;;16.30;59.20;17.60;100092.00;;;;5009197;28;20336;-45
2023/03/18 01:52:24;;;;;;;2.30;2.10;;;16.30;59.40;17.60;100092.00;;;;5007962;28;20600;-44
2023/03/18 01:55:02;;;;;;;2.73;2.20;;;16.30;59.30;17.60;100069.00;;;;5008222;28;20199;-44
2023/03/18 01:57:28;;;;;;;2.73;2.27;;;16.30;59.20;17.60;100075.00;;;;5008126;28;20199;-44
2023/03/18 01:59:54;;;;;;;2.83;2.10;;;16.30;59.20;17.60;100077.00;;;;5007681;28;20659;-44
2023/03/18 02:02:20;;;;;;;2.67;2.20;;;16.30;59.30;17.60;100079.00;;;;5007327;28;20179;-44
2023/03/18 02:04:49;;;;;;;2.33;2.10;;;16.30;59.40;17.60;100074.00;;;;5007977;28;20235;-44
2023/03/18 02:07:24;;;;;;;2.67;2.10;;;16.40;59.60;17.60;100069.00;;;;5009198;28;20183;-43
2023/03/18 02:09:50;;;;;;;2.57;2.33;;;16.30;59.50;17.50;100050.00;;;;5008759;28;20199;-43
2023/03/18 02:12:23;;;;;;;3.07;2.20;;;16.30;59.50;17.50;100058.00;;;;5007448;28;20410;-44
2023/03/18 02:14:50;;;;;;;2.90;2.20;;;16.30;59.50;17.50;100039.00;;;;5008836;28;20192;-44
2023/03/18 02:17:19;;;;;;;2.57;2.33;;;16.30;59.50;17.50;100047.00;;;;5007340;28;20217;-44
2023/03/18 02:20:20;;;;;;;2.30;2.10;;;16.30;59.50;17.50;100070.00;;;;5007230;28;20196;-44
2023/03/18 02:22:57;;;;;;;2.67;2.23;;;16.30;59.60;17.30;100063.00;;;;5007355;28;20179;-44
2023/03/18 02:26:02;;;;;;;2.87;2.33;;;16.30;60.40;17.50;100077.00;;;;5007621;28;20233;-45
2023/03/18 02:28:29;;;;;;;3.37;2.30;;;16.30;59.70;17.50;100075.00;;;;4999031;28;20214;-44
2023/03/18 02:30:57;;;;;;;2.87;2.20;;;16.20;59.70;17.50;100066.00;;;;5007466;28;20577;-47
2023/03/18 02:33:25;;;;;;;2.83;2.30;;;16.30;59.70;17.50;100050.00;;;;5007480;28;20605;-44
2023/03/18 02:35:57;;;;;;;3.63;2.30;;;16.30;59.60;17.50;100070.00;;;;5007429;28;20310;-44
2023/03/18 02:38:23;;;;;;;3.20;2.07;;;16.30;59.60;17.50;100061.00;;;;5007177;28;20589;-43
2023/03/18 02:40:48;;;;;;;3.03;2.40;;;16.30;59.60;17.50;100054.00;;;;5008649;28;20180;-44
2023/03/18 02:43:28;;;;;;;2.53;2.03;;;16.30;59.60;17.50;100060.00;;;;5008661;28;20263;-44
2023/03/18 02:45:59;;;;;;;3.10;2.23;;;16.20;59.60;17.50;100049.00;;;;5009055;28;20203;-43
2023/03/18 02:48:29;;;;;;;2.30;2.10;;;16.20;59.70;17.50;100055.00;;;;5008426;28;20199;-44
2023/03/18 02:50:55;;;;;;;2.30;2.10;;;16.20;59.80;17.40;100042.00;;;;5007365;28;20640;-44
2023/03/18 02:53:20;;;;;;;2.30;2.10;;;16.30;59.90;17.40;100078.00;;;;5007087;28;20192;-43
2023/03/18 02:55:46;;;;;;;2.50;2.10;;;16.20;59.90;17.40;100076.00;;;;5008458;28;20589;-44
2023/03/18 02:58:12;;;;;;;2.27;2.07;;;16.20;60.00;17.40;100078.00;;;;5008296;28;20195;-44
2023/03/18 03:00:38;;;;;;;2.63;1.90;;;16.20;59.90;17.40;100079.00;;;;5008511;28;20530;-44
2023/03/18 03:03:04;;;;;;;3.27;2.43;;;16.20;59.90;17.40;100084.00;;;;5008296;28;20176;-44
2023/03/18 03:05:30;;;;;;;2.67;2.13;;;16.30;60.00;17.40;100081.00;;;;5008268;28;20188;-44
2023/03/18 03:07:55;;;;;;;2.57;2.37;;;16.20;59.90;17.40;100079.00;;;;5008270;28;20179;-43
2023/03/18 03:10:21;;;;;;;2.90;2.30;;;16.20;60.00;17.40;100085.00;;;;5008013;28;20198;-43
2023/03/18 03:12:47;;;;;;;2.93;2.17;;;16.20;60.00;17.40;100085.00;;;;5007027;28;20183;-43
2023/03/18 03:15:13;;;;;;;2.83;2.30;;;16.20;59.90;17.40;100087.00;;;;5006874;28;20291;-43
2023/03/18 03:17:40;;;;;;;2.73;2.40;;;16.20;60.00;17.40;100097.00;;;;5009188;28;20183;-45
2023/03/18 03:20:07;;;;;;;3.27;2.30;;;16.20;60.00;17.40;100103.00;;;;5011492;28;20194;-44
2023/03/18 03:22:33;;;;;;;2.57;2.30;;;16.20;60.00;17.40;100094.00;;;;5011503;28;20267;-44
2023/03/18 03:25:00;;;;;;;2.40;2.20;;;16.20;59.90;17.40;100102.00;;;;5011661;28;20274;-43
2023/03/18 03:27:26;;;;;;;2.60;2.20;;;16.20;60.00;17.40;100108.00;;;;5012133;28;20264;-43
2023/03/18 03:29:52;;;;;;;3.10;2.17;;;16.20;60.00;17.40;100101.00;;;;5012013;28;20290;-44
2023/03/18 03:32:18;;;;;;;2.93;2.30;;;16.20;60.00;17.40;100099.00;;;;5013827;28;20277;-44
2023/03/18 03:34:44;;;;;;;2.60;2.37;;;16.20;60.10;17.40;100102.00;;;;5011071;28;20197;-44
2023/03/18 03:37:10;;;;;;;2.53;2.23;;;16.20;60.20;17.40;100108.00;;;;5016798;28;20208;-44
2023/03/18 03:39:36;;;;;;;3.43;2.40;;;16.10;60.10;17.30;100099.00;;;;5012320;28;20218;-44
2023/03/18 03:42:02;;;;;;;3.13;2.20;;;16.10;60.00;17.30;100101.00;;;;5011670;28;20184;-44
2023/03/18 03:44:28;;;;;;;2.70;2.20;;;16.10;60.10;17.30;100107.00;;;;5011803;28;20180;-44
2023/03/18 03:46:54;;;;;;;2.83;2.27;;;16.10;60.10;17.30;100112.00;;;;5011574;28;20183;-44
2023/03/18 03:49:19;;;;;;;4.03;2.60;;;16.10;60.10;17.30;100111.00;;;;5011005;28;20719;-43
2023/03/18 03:51:45;;;;;;;2.53;2.20;;;16.10;60.10;17.30;100110.00;;;;5011198;28;20176;-43
2023/03/18 03:54:14;;;;;;;2.87;2.20;;;16.10;60.20;17.30;100121.00;;;;5011014;28;20196;-43
2023/03/18 03:56:41;;;;;;;2.20;2.00;;;16.10;60.10;17.30;100126.00;;;;5011293;28;20183;-44
2023/03/18 03:59:07;;;;;;;3.13;2.40;;;16.10;60.10;17.30;100124.00;;;;5009716;28;20200;-43
2023/03/18 04:01:33;;;;;;;2.70;2.30;;;16.10;60.00;17.30;100123.00;;;;5010783;28;20172;-45
2023/03/18 04:04:01;;;;;;;3.07;2.30;;;16.10;60.00;17.30;100131.00;;;;5009455;28;20183;-43
2023/03/18 04:06:27;;;;;;;2.50;2.30;;;16.10;60.00;17.30;100130.00;;;;5010838;28;20631;-44
2023/03/18 04:08:53;;;;;;;2.40;2.20;;;16.10;59.90;17.30;100140.00;;;;5010718;28;20204;-44
2023/03/18 04:11:20;;;;;;;2.50;2.30;;;16.10;59.90;17.30;100141.00;;;;5010954;28;20574;-44
2023/03/18 04:13:45;;;;;;;2.27;2.07;;;16.10;60.00;17.30;100136.00;;;;5011598;28;20176;-44
2023/03/18 04:16:11;;;;;;;2.20;2.00;;;16.10;59.90;17.30;100142.00;;;;5011748;28;20212;-44
2023/03/18 04:18:37;;;;;;;2.23;2.00;;;16.10;59.90;17.20;100135.00;;;;5011593;28;20692;-43
2023/03/18 04:21:03;;;;;;;2.40;2.20;;;16.10;59.90;17.30;100140.00;;;;5010656;28;20180;-44
2023/03/18 04:23:29;;;;;;;2.57;2.23;;;16.10;59.90;17.20;100146.00;;;;5009300;28;20199;-44
2023/03/18 04:25:54;;;;;;;2.20;1.90;;;16.10;59.90;17.20;100140.00;;;;5011025;28;20180;-44
2023/03/18 04:28:20;;;;;;;2.90;2.40;;;16.10;59.90;17.20;100152.00;;;;5010732;28;20200;-43
2023/03/18 04:30:47;;;;;;;2.70;2.27;;;16.00;59.80;17.20;100152.00;;;;5007212;28;20207;-43
2023/03/18 04:33:13;;;;;;;5.70;2.23;;;16.00;60.00;17.20;100154.00;;;;5007383;28;20191;-44
2023/03/18 04:35:41;;;;;;;2.50;2.30;;;16.00;60.30;17.20;100159.00;;;;5010468;28;20204;-44
2023/03/18 04:38:07;;;;;;;2.30;2.10;;;16.10;60.40;17.20;100165.00;;;;5010432;28;20172;-44
2023/03/18 04:40:32;;;;;;;3.63;2.20;;;16.00;60.10;17.20;100168.00;;;;5010478;28;20671;-43
2023/03/18 04:42:58;;;;;;;2.43;2.10;;;16.00;60.00;17.20;100158.00;;;;5010323;28;20658;-45
2023/03/18 04:45:24;;;;;;;3.67;2.40;;;16.00;60.00;17.20;100173.00;;;;5010316;28;20186;-45
2023/03/18 04:47:50;;;;;;;4.07;3.00;;;16.00;60.20;17.10;100162.00;;;;5010332;28;20176;-43
2023/03/18 04:50:16;;;;;;;2.83;2.60;;;15.90;60.80;17.10;100171.00;;;;5010234;28;20687;-43
2023/03/18 04:52:43;;;;;;;4.73;2.87;;;15.80;61.00;17.10;100178.00;;;;5010239;28;20176;-44
2023/03/18 04:55:10;;;;;;;3.37;2.93;;;15.80;61.20;17.00;100165.00;;;;5009335;28;20214;-43
2023/03/18 04:57:37;;;;;;;4.00;2.80;;;15.80;61.40;17.00;100180.00;;;;5009600;28;20164;-44
2023/03/18 05:00:06;;;;;;;4.10;3.10;;;15.70;61.50;17.00;100176.00;;;;5009750;28;20192;-48
2023/03/18 05:02:31;;;;;;;3.70;2.87;;;15.70;62.10;16.90;100169.00;;;;5010088;28;20211;-43
2023/03/18 05:04:59;;;;;;;3.97;3.10;;;15.70;61.60;16.90;100173.00;;;;5009974;28;20209;-44
2023/03/18 05:07:26;;;;;;;5.80;3.50;;;15.70;61.60;16.90;100168.00;;;;5009984;28;20669;-44
2023/03/18 05:09:51;;;;;;;3.70;3.10;;;15.70;61.80;16.90;100172.00;;;;5000072;28;20207;-43
2023/03/18 05:12:17;;;;;;;3.20;2.90;;;15.70;61.80;16.80;100162.00;;;;4991831;28;20187;-43
2023/03/18 05:14:43;;;;;;;4.37;3.30;;;15.60;61.70;16.90;100176.00;;;;5008286;28;20253;-44
2023/03/18 05:17:14;;;;;;;3.63;3.13;;;15.60;62.00;16.80;100170.00;;;;5008014;28;20261;-44
2023/03/18 05:19:42;;;;;;;4.60;2.87;;;15.60;62.00;16.80;100183.00;;;;5009143;28;20196;-44
2023/03/18 05:22:09;;;;;;;4.33;3.10;;;15.60;62.00;16.80;100171.00;;;;5008797;28;20673;-44
2023/03/18 05:24:34;;;;;;;3.67;3.20;;;15.60;62.10;16.80;100179.00;;;;5007485;28;20630;-43
2023/03/18 05:27:00;;;;;;;4.43;3.00;;;15.60;62.00;16.80;100182.00;;;;5009476;28;20191;-44
2023/03/18 05:29:26;;;;;;;4.27;3.10;;;15.60;62.00;16.80;100173.00;;;;5008599;28;20211;-44
2023/03/18 05:31:52;;;;;;;3.67;3.10;;;15.60;62.10;16.80;100180.00;;;;5009037;28;20176;-44
2023/03/18 05:34:18;;;;;;;3.50;3.00;;;15.60;62.10;16.80;100173.00;;;;5009727;28;20204;-43
2023/03/18 05:36:44;;;;;;;3.87;3.00;;;15.60;62.10;16.80;100182.00;;;;5009902;28;20656;-43
2023/03/18 05:39:10;;;;;;;3.93;3.00;;;15.60;62.00;16.80;100193.00;;;;5008200;28;20299;-43
2023/03/18 05:41:36;;;;;;;4.30;3.10;;;15.60;62.00;16.80;100188.00;;;;5009322;28;20628;-44
2023/03/18 05:44:01;;;;;;;5.20;3.33;;;15.60;62.20;16.80;100184.00;;;;5009319;28;20651;-43
2023/03/18 05:46:27;;;;;;;4.47;3.03;;;15.60;62.30;16.70;100187.00;;;;5009814;28;20172;-44
2023/03/18 05:48:53;;;;;;;4.53;3.20;;;15.60;62.40;16.70;100195.00;;;;5009841;28;20218;-44
2023/03/18 05:51:19;;;;;;;4.47;3.17;;;15.50;62.40;16.70;100201.00;;;;5009172;28;20179;-43
2023/03/18 05:53:45;;;;;;;4.10;3.10;;;15.50;62.40;16.70;100208.00;;;;5008941;28;20229;-43
2023/03/18 05:56:13;;;;;;;3.80;3.10;;;15.50;62.40;16.70;100200.00;;;;5009631;28;20215;-45
2023/03/18 05:58:39;;;;;;;4.60;3.30;;;15.50;62.60;16.70;100210.00;;;;5009589;28;20203;-44
2023/03/18 06:01:06;;;;;;;7.50;3.33;;;15.50;62.80;16.60;100216.00;;;;5008379;28;20176;-45
2023/03/18 06:03:33;;;;;;;4.63;3.33;;;15.40;62.80;16.60;100213.00;;;;5008772;28;20168;-44
2023/03/18 06:06:00;;;;;;;4.40;3.30;;;15.50;62.90;16.60;100213.00;;;;5006450;28;20176;-44
2023/03/18 06:08:26;;;;;;;5.13;3.00;;;15.40;63.50;16.60;100209.00;;;;5008838;28;20211;-44
2023/03/18 06:10:53;;;;;;;6.33;3.27;;;15.40;62.80;16.60;100222.00;;;;5009083;28;20172;-44
2023/03/18 06:13:18;;;;;;;3.37;2.90;;;15.50;62.80;16.60;100219.00;;;;5007705;28;20183;-44
2023/03/18 06:15:45;;;;;;;5.00;3.30;;;15.40;62.70;16.60;100227.00;;;;5009162;28;20219;-44
2023/03/18 06:18:11;;;;;;;3.30;2.80;;;15.40;62.90;16.20;100223.00;;;;5004619;28;20266;-44
2023/03/18 06:20:37;;;;;;;4.67;3.47;;;15.50;62.80;16.60;100222.00;;;;5009097;28;20176;-44
2023/03/18 06:23:04;;;;;;;4.03;3.00;;;15.50;62.80;16.60;100226.00;;;;5007248;28;20175;-43
2023/03/18 06:25:29;;;;;;;3.70;3.10;;;15.40;62.70;16.60;100221.00;;;;5009389;28;20191;-45
2023/03/18 06:27:55;;;;;;;4.97;3.10;;;15.50;62.60;16.60;100223.00;;;;5007838;28;20188;-45
2023/03/18 06:30:21;;;;;;;4.63;2.93;;;15.50;62.80;16.60;100232.00;;;;5008897;28;20245;-45
2023/03/18 06:32:47;;;;;;;5.70;3.40;;;15.40;62.70;16.60;100234.00;;;;5009060;28;20222;-44
2023/03/18 06:35:13;;;;;;;3.40;2.77;;;15.40;62.70;16.60;100221.00;;;;5009115;28;20211;-44
2023/03/18 06:37:39;;;;;;;3.60;3.10;;;15.40;62.70;16.60;100185.00;;;;5009876;28;20184;-45
2023/03/18 06:40:06;;;;;;;4.13;2.97;;;15.40;62.70;16.60;100232.00;;;;5009779;28;20333;-44
2023/03/18 06:42:32;;;;;;;3.40;2.83;;;15.40;62.70;16.60;100227.00;;;;5011103;28;20171;-43
2023/03/18 06:44:58;;;;;;;3.33;2.90;;;15.40;62.70;16.50;100230.00;;;;5008965;28;20187;-43
2023/03/18 06:47:25;;;;;;;4.43;3.10;;;15.40;62.80;16.50;100234.00;;;;5009020;28;20179;-44
2023/03/18 06:49:50;;;;;;;3.33;3.03;;;15.40;62.70;16.50;100232.00;;;;5008802;28;20203;-44
2023/03/18 06:52:17;;;;;;;4.37;3.43;;;15.40;62.70;16.50;100228.00;;;;5007536;28;20202;-44
2023/03/18 06:54:44;;;;;;;3.77;3.27;;;15.40;62.60;16.50;100237.00;;;;5012254;28;20749;-44
2023/03/18 06:57:10;;;;;;;3.40;2.87;;;15.40;62.60;16.50;100237.00;;;;5012999;28;20187;-44
2023/03/18 06:59:36;;;;;;;4.07;3.00;;;15.40;62.70;16.50;100234.00;;;;5012642;28;20191;-44
2023/03/18 07:02:04;;;;;;;3.97;3.17;;;15.40;62.60;16.50;100240.00;;;;5011632;28;20179;-45
2023/03/18 07:04:30;;;;;;;3.30;3.00;;;15.40;62.40;16.50;100237.00;;;;5012433;28;20771;-44
2023/03/18 07:06:56;;;;;;;3.17;2.87;;;15.30;62.60;16.50;100253.00;;;;5012949;28;20263;-44
2023/03/18 07:09:23;;;;;;;4.00;3.20;;;15.30;62.60;16.50;100233.00;;;;5012080;28;20221;-44
2023/03/18 07:11:49;;;;;;;3.30;3.00;;;15.40;62.70;16.50;100254.00;;;;5012521;28;20338;-44
2023/03/18 07:14:14;;;;;;;3.80;3.20;;;15.30;62.50;16.50;100251.00;;;;5012074;28;20714;-45
2023/03/18 07:16:40;;;;;;;3.90;3.10;;;15.30;62.50;16.50;100245.00;;;;5011727;28;20180;-45
2023/03/18 07:19:06;;;;;;;3.17;2.87;;;15.30;62.80;16.50;100246.00;;;;5012383;28;20203;-44
2023/03/18 07:21:32;;;;;;;3.57;3.23;;;15.30;62.90;16.50;100256.00;;;;5011669;28;20171;-44
2023/03/18 07:23:58;;;;;;;4.73;3.33;;;15.40;62.80;16.50;100253.00;;;;5011670;28;20196;-44
2023/03/18 07:26:24;;;;;;;4.30;2.97;;;15.40;62.70;16.50;100253.00;;;;5012080;28;20176;-45
2023/03/18 07:28:50;;;;;;;3.80;3.10;;;15.30;62.70;16.30;100263.00;;;;5012311;28;20278;-44
2023/03/18 07:31:16;;;;;;;4.43;3.10;;;15.40;63.60;16.50;100260.00;;;;5011359;28;20195;-44
2023/03/18 07:33:42;;;;;;;4.00;3.00;;;15.40;62.80;16.50;100261.00;;;;5012077;28;20722;-44
2023/03/18 07:36:08;;;;;;;3.77;3.20;;;15.40;62.80;16.50;100252.00;;;;5011837;28;20294;-44
2023/03/18 07:38:34;;;;;;;4.37;3.47;;;15.30;62.80;16.50;100264.00;;;;5011915;28;20234;-45
2023/03/18 07:41:00;;;;;;;3.30;3.00;;;15.30;63.00;16.40;100257.00;;;;5015489;28;20546;-45
2023/03/18 07:43:26;;;;;;;4.10;3.10;;;15.30;63.00;16.50;100271.00;;;;5016974;28;20195;-44
2023/03/18 07:45:51;;;;;;;4.00;3.33;;;15.30;62.80;16.50;100279.00;;;;5016738;28;20179;-44
2023/03/18 07:48:18;;;;;;;4.57;3.20;;;15.30;62.80;16.50;100279.00;;;;5012764;28;20200;-43
2023/03/18 07:50:44;;;;;;;5.00;3.50;;;15.30;62.90;16.50;100272.00;;;;5010594;28;20214;-44
2023/03/18 07:53:11;;;;;;;4.40;3.73;;;15.30;63.00;16.50;100275.00;;;;5011249;28;20187;-45
2023/03/18 07:55:37;;;;;;;4.97;3.57;;;15.30;63.20;16.40;100287.00;;;;5011569;28;20199;-45
2023/03/18 07:58:03;;;;;;;4.67;3.20;;;15.20;63.30;16.40;100283.00;;;;5012196;28;20172;-44
2023/03/18 08:00:30;;;;;;;5.73;3.40;;;15.30;63.40;16.40;100284.00;;;;5008381;28;20183;-43
2023/03/18 08:02:55;;;;;;;3.63;3.10;;;15.30;63.30;16.40;100287.00;;;;5007868;28;20195;-45
2023/03/18 08:05:21;;;;;;;4.17;3.13;;;15.40;63.30;16.50;100300.00;;;;5011179;28;20544;-44
2023/03/18 08:07:47;;;;;;;5.33;3.20;;;15.40;63.20;16.50;100291.00;;;;5010898;28;20198;-44
2023/03/18 08:10:13;;;;;;;3.47;3.17;;;15.40;63.10;16.50;100314.00;;;;5009773;28;20258;-45
2023/03/18 08:12:39;;;;;;;3.10;2.80;;;15.40;62.90;16.50;100318.00;;;;5010934;28;20587;-45
2023/03/18 08:15:06;;;;;;;4.47;3.10;;;15.50;63.10;16.30;100314.00;;;;5011145;28;20214;-45
2023/03/18 08:17:32;;;;;;;3.40;2.83;;;15.40;62.80;16.50;100312.00;;;;5010378;28;20544;-44
2023/03/18 08:19:57;;;;;;;3.47;2.93;;;15.40;62.80;16.50;100313.00;;;;5011256;28;20275;-44
2023/03/18 08:22:24;;;;;;;3.50;3.03;;;15.50;63.00;16.50;100318.00;;;;5010513;28;20545;-44
2023/03/18 08:24:50;;;;;;;3.83;2.80;;;15.50;63.00;16.50;100314.00;;;;5010930;28;20184;-44
2023/03/18 08:27:17;;;;;;;3.67;2.80;;;15.50;63.00;16.50;100309.00;;;;5011071;28;21055;-44
2023/03/18 08:29:43;;;;;;;3.00;2.70;;;15.50;63.10;16.60;100325.00;;;;5011004;28;20243;-44
2023/03/18 08:32:09;;;;;;;3.70;2.77;;;15.50;63.00;16.50;100320.00;;;;5004112;28;20191;-45
2023/03/18 08:34:35;;;;;;;2.97;2.53;;;15.50;63.10;16.50;100325.00;;;;5003466;28;20230;-45
2023/03/18 08:37:01;;;;;;;4.43;2.90;;;15.50;62.90;16.60;100325.00;;;;5002773;28;20613;-45
2023/03/18 08:39:27;;;;;;;4.50;2.90;;;15.50;63.70;16.50;100315.00;;;;5004904;28;20198;-45
2023/03/18 08:41:53;;;;;;;2.90;2.60;;;15.50;62.90;16.60;100315.00;;;;5010350;28;20320;-44
2023/03/18 08:44:19;;;;;;;3.90;2.43;;;15.50;63.10;16.60;100315.00;;;;5010422;28;20203;-44
2023/03/18 08:46:44;;;;;;;3.10;2.77;;;15.50;63.80;16.60;100319.00;;;;5010873;28;20234;-44
2023/03/18 08:49:11;;;;;;;3.73;2.70;;;15.50;63.00;16.60;100323.00;;;;5010597;28;20200;-44
2023/03/18 08:51:37;;;;;;;3.10;2.80;;;15.50;63.00;16.60;100322.00;;;;5009735;28;20654;-44
2023/03/18 08:54:03;;;;;;;3.07;2.80;;;15.50;62.90;16.60;100324.00;;;;5009585;28;20191;-44
2023/03/18 08:56:28;;;;;;;3.30;2.77;;;15.50;62.90;16.60;100313.00;;;;5009325;28;20621;-44
2023/03/18 08:58:54;;;;;;;3.60;2.67;;;15.50;63.10;16.60;100322.00;;;;5009473;28;20195;-44
2023/03/18 09:01:21;;;;;;;3.20;2.50;;;15.50;62.90;16.60;100317.00;;;;5010102;28;20186;-45
2023/03/18 09:03:48;;;;;;;2.83;2.50;;;15.50;62.90;16.60;100324.00;;;;5009725;28;20649;-43
2023/03/18 09:06:14;;;;;;;2.93;2.47;;;15.50;63.00;16.60;100319.00;;;;5008419;28;20175;-45
2023/03/18 09:08:40;;;;;;;3.60;2.70;;;15.50;63.00;16.60;100322.00;;;;5010460;28;20330;-43
2023/03/18 09:11:06;;;;;;;3.53;2.50;;;15.50;63.10;16.60;100324.00;;;;5009679;28;20211;-43
2023/03/18 09:13:32;;;;;;;3.63;2.43;;;15.50;63.10;16.60;100319.00;;;;5010254;28;20646;-43
2023/03/18 09:15:58;;;;;;;2.93;2.60;;;15.50;63.30;16.60;100315.00;;;;5008598;28;20239;-43
2023/03/18 09:18:24;;;;;;;2.13;2.03;;;15.50;63.20;16.60;100331.00;;;;5009930;28;20250;-43
2023/03/18 09:20:50;;;;;;;2.60;2.30;;;15.50;63.40;16.60;100325.00;;;;5010012;28;20179;-43
2023/03/18 09:23:17;;;;;;;4.07;2.27;;;15.50;63.30;16.60;100321.00;;;;5010117;28;20191;-43
2023/03/18 09:25:43;;;;;;;4.20;2.70;;;15.50;63.30;16.60;100320.00;;;;5010786;28;20175;-44
2023/03/18 09:28:09;;;;;;;2.93;2.50;;;15.50;63.50;16.60;100322.00;;;;5008830;28;20713;-43
2023/03/18 09:30:35;;;;;;;2.83;2.43;;;15.50;63.60;16.60;100305.00;;;;5010517;28;20176;-44
2023/03/18 09:33:01;;;;;;;2.53;2.33;;;15.50;64.00;16.60;100317.00;;;;5010286;28;20172;-43
2023/03/18 09:35:29;;;;;;;4.80;2.50;;;15.50;64.20;16.60;100317.00;;;;5009940;28;20228;-44
2023/03/18 09:37:55;;;;;;;4.60;2.63;;;15.60;64.70;16.60;100304.00;;;;5010143;28;20179;-44
2023/03/18 09:40:26;;;;;;;3.87;2.47;;;15.60;64.70;16.70;100312.00;;;;5010137;28;20180;-44
2023/03/18 09:43:37;;;;;;;3.97;2.57;;;15.60;64.70;16.70;100309.00;;;;5008912;28;20176;-45
2023/03/18 09:46:19;;;;;;;5.50;2.20;;;15.60;64.70;16.60;100299.00;;;;5009102;28;20179;-45
2023/03/18 09:49:32;;;;;;;4.23;2.67;;;15.70;64.80;16.70;100315.00;;;;5008459;28;20203;-43
2023/03/18 09:52:15;;;;;;;5.00;2.50;;;15.70;64.80;16.70;100310.00;;;;4995827;28;20191;-43
2023/03/18 09:54:55;;;;;;;6.73;2.60;;;15.60;64.80;16.70;100321.00;;;;5009127;28;20684;-44
2023/03/18 09:57:27;;;;;;;7.53;2.57;;;15.70;64.80;16.70;100251.00;;;;5010160;28;20199;-44
2023/03/18 10:00:19;;;;;;;4.93;2.53;;;15.70;65.00;16.70;100306.00;;;;5008731;28;20742;-43
2023/03/18 10:02:52;;;;;;;8.43;2.70;;;15.70;65.00;16.70;100316.00;;;;5008620;28;20735;-44
2023/03/18 10:05:42;;;;;;;12.43;3.00;;;15.70;64.90;16.70;100318.00;;;;5008836;28;20184;-44
2023/03/18 10:08:19;;;;;;;9.33;2.70;;;15.70;64.80;16.70;100314.00;;;;5008642;28;20189;-43
2023/03/18 10:10:45;;;;;;;7.60;3.00;;;15.70;64.80;16.70;100320.00;;;;5008774;28;20482;-43
2023/03/18 10:13:32;;;;;;;6.87;2.70;;;15.70;65.00;16.70;100303.00;;;;5008433;28;20187;-42
2023/03/18 10:15:58;;;;;;;7.47;2.90;;;15.70;65.20;16.70;100305.00;;;;5009461;28;20254;-43
2023/03/18 10:18:26;;;;;;;4.87;2.50;;;15.70;65.50;16.70;100318.00;;;;5006158;28;20227;-44
2023/03/18 10:21:04;;;;;;;6.03;2.80;;;15.70;65.50;16.70;100320.00;;;;5008084;28;20647;-43
2023/03/18 10:23:57;;;;;;;5.27;2.90;;;15.70;65.50;16.80;100311.00;;;;5008910;28;20200;-42
2023/03/18 10:26:40;;;;;;;2.73;2.47;;;15.70;65.50;16.80;100308.00;;;;5008958;28;20593;-44
2023/03/18 10:29:24;;;;;;;3.37;2.40;;;15.70;65.20;16.80;100314.00;;;;4994595;28;20200;-43
2023/03/18 10:32:43;;;;;;;4.33;2.80;;;15.70;65.50;16.80;100312.00;;;;5012408;28;20210;-43
2023/03/18 10:36:01;;;;;;;5.00;2.50;;;15.80;65.60;16.80;100314.00;;;;5009554;28;20203;-43
2023/03/18 10:38:35;;;;;;;4.83;2.30;;;15.70;65.70;16.80;100313.00;;;;5010546;28;20206;-44
2023/03/18 10:41:00;;;;;;;4.10;2.20;;;15.80;65.80;16.80;100312.00;;;;4996520;28;20556;-43
2023/03/18 10:43:30;;;;;;;4.00;2.13;;;15.80;65.50;16.80;100304.00;;;;5012010;28;20179;-43
2023/03/18 10:46:07;;;;;;;2.67;2.40;;;15.80;65.60;16.80;100297.00;;;;5011726;28;20182;-43
2023/03/18 10:48:56;;;;;;;3.37;2.27;;;15.80;66.40;16.80;100309.00;;;;5012147;28;20222;-43
2023/03/18 10:51:51;;;;;;;2.80;2.27;;;15.90;65.70;16.90;100304.00;;;;5012001;28;20191;-43
2023/03/18 10:54:51;;;;;;;3.87;2.50;;;15.90;65.70;16.90;100308.00;;;;5012249;28;20243;-43